Decoded Metar for KSPF (SPEARFISH/CLYDE in SD, USA) (IATA:SPF) | Meteo·Mobile Aviation Weather
aviador You're here:

KSPF Decoded Metar

SPEARFISH/CLYDE in SD, USA
Report Time2019-05-25 23:35:00
UTC Time2019-05-25 23:44:18
Flight Rules vfr VFR
Wind110° at 12 Gusting to 19 kt
W.Decomp.*RWY 08: 11.3 kt HW 3.9 kt RCW
RWY 13: 10.3 kt HW 6.2 kt LCW
RWY 04: 6.2 kt HW 10.3 kt RCW
Visibility9999 m
Phenomena:N/A
Clouds:N/A
Expected CloudBase > 4,400 ft AGL from Temp-Dew spread
CeilingNone
Temp18°C (ISA +11)
Dew Point07°C (49% RH)
AAT13.0°C
QNH1015 hPa
Density Alt5,223 ft
Elevation3,898 ft
Report Wrong Elevation
Raw Report
KSPF 252335Z AUTO 11012G19KT 10SM CLR 18/07 A2997 RMK AO2=

Extra information for KSPF:More info

Metar Taf Metar & Taf Last 4 Metars F.Rules Stats Wind Profile Meteogram Temp Stats Airport Information Weather charts Add Link Nearby VenuesMetar ALERT Operation Metar Decoded Social comments

AIRNAV info for KSPF